Decoded Metar for KW75 ( in ) (IATA:) | Meteo·Mobile Aviation Weather
aviador You're here:

KW75 Decoded Metar

in
Report Time2019-10-18 13:35:00
UTC Time2019-10-18 13:34:05
Flight Rules vfr VFR
Wind300° at 07 Gusting to 14 kt
Visibility9999 m
Phenomena:N/A
Clouds:N/A
Expected CloudBase > 2,800 ft AGL from Temp-Dew spread
CeilingNone
Temp11°C
Dew Point04°C (62% RH)
AAT7.2°C
QNH1016 hPa
Raw Report
METAR KW75 181335Z AUTO 30007G14KT 10SM CLR 11/04 A2999 RMK AO1
T01140038=

Extra information for KW75:More info

Social comments